sensor_id;sensor_type;location;lat;lon;timestamp;P1;durP1;ratioP1;P2;durP2;ratioP2
2684;SDS011;1352;48.446;9.156;2022-12-05T00:01:26;26.43;;;17.20;;
2684;SDS011;1352;48.446;9.156;2022-12-05T00:03:59;30.93;;;17.07;;
2684;SDS011;1352;48.446;9.156;2022-12-05T00:06:30;23.93;;;16.47;;
2684;SDS011;1352;48.446;9.156;2022-12-05T00:09:01;27.63;;;16.63;;
2684;SDS011;1352;48.446;9.156;2022-12-05T00:11:40;26.53;;;16.70;;
2684;SDS011;1352;48.446;9.156;2022-12-05T00:14:19;27.70;;;17.43;;
2684;SDS011;1352;48.446;9.156;2022-12-05T00:16:46;28.20;;;17.30;;
2684;SDS011;1352;48.446;9.156;2022-12-05T00:19:14;27.17;;;17.43;;
2684;SDS011;1352;48.446;9.156;2022-12-05T00:21:43;26.33;;;16.50;;
2684;SDS011;1352;48.446;9.156;2022-12-05T00:24:11;30.00;;;18.07;;
2684;SDS011;1352;48.446;9.156;2022-12-05T00:26:39;28.30;;;18.73;;
2684;SDS011;1352;48.446;9.156;2022-12-05T00:29:07;31.13;;;18.67;;
2684;SDS011;1352;48.446;9.156;2022-12-05T00:31:36;32.57;;;17.97;;
2684;SDS011;1352;48.446;9.156;2022-12-05T00:34:07;28.43;;;17.17;;
2684;SDS011;1352;48.446;9.156;2022-12-05T00:36:34;28.00;;;16.43;;
2684;SDS011;1352;48.446;9.156;2022-12-05T00:39:05;30.20;;;16.80;;
2684;SDS011;1352;48.446;9.156;2022-12-05T00:41:33;34.10;;;20.00;;
2684;SDS011;1352;48.446;9.156;2022-12-05T00:44:00;30.20;;;18.30;;
2684;SDS011;1352;48.446;9.156;2022-12-05T00:46:29;29.90;;;17.33;;
2684;SDS011;1352;48.446;9.156;2022-12-05T00:48:57;28.43;;;17.70;;
2684;SDS011;1352;48.446;9.156;2022-12-05T00:51:27;25.80;;;15.80;;
2684;SDS011;1352;48.446;9.156;2022-12-05T00:53:56;29.10;;;15.87;;
2684;SDS011;1352;48.446;9.156;2022-12-05T00:56:26;21.10;;;14.50;;
2684;SDS011;1352;48.446;9.156;2022-12-05T00:58:55;25.10;;;15.40;;
2684;SDS011;1352;48.446;9.156;2022-12-05T01:01:28;26.20;;;13.63;;
2684;SDS011;1352;48.446;9.156;2022-12-05T01:03:57;25.43;;;15.57;;
2684;SDS011;1352;48.446;9.156;2022-12-05T01:06:26;25.93;;;13.47;;
2684;SDS011;1352;48.446;9.156;2022-12-05T01:08:54;25.30;;;14.47;;
2684;SDS011;1352;48.446;9.156;2022-12-05T01:11:27;29.97;;;14.97;;
2684;SDS011;1352;48.446;9.156;2022-12-05T01:13:55;26.30;;;14.73;;
2684;SDS011;1352;48.446;9.156;2022-12-05T01:16:24;28.10;;;15.33;;
2684;SDS011;1352;48.446;9.156;2022-12-05T01:19:01;29.83;;;15.50;;
2684;SDS011;1352;48.446;9.156;2022-12-05T01:21:33;26.17;;;14.93;;
2684;SDS011;1352;48.446;9.156;2022-12-05T01:24:02;23.27;;;14.43;;
2684;SDS011;1352;48.446;9.156;2022-12-05T01:26:31;27.20;;;16.20;;
2684;SDS011;1352;48.446;9.156;2022-12-05T01:28:58;27.27;;;14.43;;
2684;SDS011;1352;48.446;9.156;2022-12-05T01:31:32;32.67;;;16.93;;
2684;SDS011;1352;48.446;9.156;2022-12-05T01:34:01;29.30;;;15.60;;
2684;SDS011;1352;48.446;9.156;2022-12-05T01:36:33;28.43;;;15.37;;
2684;SDS011;1352;48.446;9.156;2022-12-05T01:39:00;26.00;;;15.10;;
2684;SDS011;1352;48.446;9.156;2022-12-05T01:41:28;28.43;;;16.13;;
2684;SDS011;1352;48.446;9.156;2022-12-05T01:43:59;24.23;;;15.13;;
2684;SDS011;1352;48.446;9.156;2022-12-05T01:46:29;22.50;;;11.97;;
2684;SDS011;1352;48.446;9.156;2022-12-05T01:48:59;17.90;;;10.97;;
2684;SDS011;1352;48.446;9.156;2022-12-05T01:51:32;19.97;;;11.07;;
2684;SDS011;1352;48.446;9.156;2022-12-05T01:54:05;14.40;;;7.87;;
2684;SDS011;1352;48.446;9.156;2022-12-05T01:56:37;9.87;;;6.73;;
2684;SDS011;1352;48.446;9.156;2022-12-05T01:59:09;9.20;;;6.07;;
2684;SDS011;1352;48.446;9.156;2022-12-05T02:01:38;11.23;;;8.57;;
2684;SDS011;1352;48.446;9.156;2022-12-05T02:04:06;13.17;;;7.17;;
2684;SDS011;1352;48.446;9.156;2022-12-05T02:06:40;11.10;;;7.37;;
2684;SDS011;1352;48.446;9.156;2022-12-05T02:09:10;7.97;;;5.90;;
2684;SDS011;1352;48.446;9.156;2022-12-05T02:11:49;9.40;;;6.37;;
2684;SDS011;1352;48.446;9.156;2022-12-05T02:14:23;8.73;;;5.53;;
2684;SDS011;1352;48.446;9.156;2022-12-05T02:17:00;9.50;;;5.70;;
2684;SDS011;1352;48.446;9.156;2022-12-05T02:25:30;8.57;;;5.90;;
2684;SDS011;1352;48.446;9.156;2022-12-05T02:28:20;9.20;;;6.10;;
2684;SDS011;1352;48.446;9.156;2022-12-05T02:31:06;7.50;;;5.30;;
2684;SDS011;1352;48.446;9.156;2022-12-05T02:33:37;8.93;;;5.90;;
2684;SDS011;1352;48.446;9.156;2022-12-05T02:36:14;11.87;;;6.13;;
2684;SDS011;1352;48.446;9.156;2022-12-05T02:38:49;12.10;;;7.17;;
2684;SDS011;1352;48.446;9.156;2022-12-05T02:41:25;10.87;;;7.63;;
2684;SDS011;1352;48.446;9.156;2022-12-05T02:43:59;11.50;;;7.40;;
2684;SDS011;1352;48.446;9.156;2022-12-05T02:46:35;8.53;;;6.50;;
2684;SDS011;1352;48.446;9.156;2022-12-05T02:49:07;11.57;;;8.20;;
2684;SDS011;1352;48.446;9.156;2022-12-05T02:51:37;13.30;;;7.30;;
2684;SDS011;1352;48.446;9.156;2022-12-05T02:54:09;10.83;;;7.57;;
2684;SDS011;1352;48.446;9.156;2022-12-05T02:56:40;11.80;;;7.90;;
2684;SDS011;1352;48.446;9.156;2022-12-05T02:59:10;10.93;;;7.97;;
2684;SDS011;1352;48.446;9.156;2022-12-05T03:01:43;12.10;;;7.33;;
2684;SDS011;1352;48.446;9.156;2022-12-05T03:04:11;11.30;;;7.90;;
2684;SDS011;1352;48.446;9.156;2022-12-05T03:06:43;10.50;;;6.77;;
2684;SDS011;1352;48.446;9.156;2022-12-05T03:09:15;11.27;;;7.30;;
2684;SDS011;1352;48.446;9.156;2022-12-05T03:11:48;9.73;;;7.10;;
2684;SDS011;1352;48.446;9.156;2022-12-05T03:14:19;12.60;;;7.90;;
2684;SDS011;1352;48.446;9.156;2022-12-05T03:16:53;9.80;;;7.47;;
2684;SDS011;1352;48.446;9.156;2022-12-05T03:19:25;14.00;;;8.23;;
2684;SDS011;1352;48.446;9.156;2022-12-05T03:21:58;13.43;;;8.13;;
2684;SDS011;1352;48.446;9.156;2022-12-05T03:24:27;16.23;;;9.30;;
2684;SDS011;1352;48.446;9.156;2022-12-05T03:26:57;10.67;;;6.60;;
2684;SDS011;1352;48.446;9.156;2022-12-05T03:29:34;12.30;;;8.03;;
2684;SDS011;1352;48.446;9.156;2022-12-05T03:32:08;9.90;;;7.40;;
2684;SDS011;1352;48.446;9.156;2022-12-05T03:34:42;12.27;;;7.73;;
2684;SDS011;1352;48.446;9.156;2022-12-05T03:37:21;13.90;;;9.30;;
2684;SDS011;1352;48.446;9.156;2022-12-05T03:39:57;11.57;;;7.00;;
2684;SDS011;1352;48.446;9.156;2022-12-05T03:42:32;11.90;;;7.40;;
2684;SDS011;1352;48.446;9.156;2022-12-05T03:45:04;9.83;;;6.80;;
2684;SDS011;1352;48.446;9.156;2022-12-05T03:47:39;12.73;;;7.60;;
2684;SDS011;1352;48.446;9.156;2022-12-05T03:50:17;11.20;;;6.63;;
2684;SDS011;1352;48.446;9.156;2022-12-05T03:52:49;10.97;;;7.00;;
2684;SDS011;1352;48.446;9.156;2022-12-05T03:55:21;10.47;;;7.53;;
2684;SDS011;1352;48.446;9.156;2022-12-05T03:57:52;8.37;;;6.00;;
2684;SDS011;1352;48.446;9.156;2022-12-05T04:00:23;9.87;;;6.83;;
2684;SDS011;1352;48.446;9.156;2022-12-05T04:02:54;10.80;;;7.97;;
2684;SDS011;1352;48.446;9.156;2022-12-05T04:05:29;9.97;;;7.67;;
2684;SDS011;1352;48.446;9.156;2022-12-05T04:08:05;10.00;;;7.30;;
2684;SDS011;1352;48.446;9.156;2022-12-05T04:10:37;10.00;;;6.73;;
2684;SDS011;1352;48.446;9.156;2022-12-05T04:13:14;11.37;;;7.20;;
2684;SDS011;1352;48.446;9.156;2022-12-05T04:15:47;11.00;;;7.40;;
2684;SDS011;1352;48.446;9.156;2022-12-05T04:18:41;12.53;;;7.50;;
2684;SDS011;1352;48.446;9.156;2022-12-05T04:21:13;8.50;;;6.27;;
2684;SDS011;1352;48.446;9.156;2022-12-05T04:24:00;11.53;;;7.13;;
2684;SDS011;1352;48.446;9.156;2022-12-05T04:26:45;12.00;;;8.30;;
2684;SDS011;1352;48.446;9.156;2022-12-05T04:29:21;12.73;;;7.80;;
2684;SDS011;1352;48.446;9.156;2022-12-05T04:32:05;13.37;;;7.07;;
2684;SDS011;1352;48.446;9.156;2022-12-05T04:34:41;10.00;;;6.73;;
2684;SDS011;1352;48.446;9.156;2022-12-05T04:37:16;13.30;;;6.63;;
2684;SDS011;1352;48.446;9.156;2022-12-05T04:39:52;8.43;;;6.20;;
2684;SDS011;1352;48.446;9.156;2022-12-05T04:42:22;10.87;;;6.37;;
2684;SDS011;1352;48.446;9.156;2022-12-05T04:44:59;9.40;;;6.53;;
2684;SDS011;1352;48.446;9.156;2022-12-05T04:47:34;10.10;;;7.00;;
2684;SDS011;1352;48.446;9.156;2022-12-05T04:50:08;9.97;;;5.90;;
2684;SDS011;1352;48.446;9.156;2022-12-05T04:52:43;8.20;;;6.53;;
2684;SDS011;1352;48.446;9.156;2022-12-05T04:55:22;8.93;;;6.60;;
2684;SDS011;1352;48.446;9.156;2022-12-05T04:57:58;10.37;;;6.77;;
2684;SDS011;1352;48.446;9.156;2022-12-05T05:00:33;8.47;;;6.93;;
2684;SDS011;1352;48.446;9.156;2022-12-05T05:03:20;11.90;;;8.13;;
2684;SDS011;1352;48.446;9.156;2022-12-05T05:05:59;11.33;;;7.10;;
2684;SDS011;1352;48.446;9.156;2022-12-05T05:08:27;14.70;;;8.00;;
2684;SDS011;1352;48.446;9.156;2022-12-05T05:11:02;10.90;;;7.47;;
2684;SDS011;1352;48.446;9.156;2022-12-05T05:13:35;13.27;;;7.70;;
2684;SDS011;1352;48.446;9.156;2022-12-05T05:16:03;9.50;;;8.10;;
2684;SDS011;1352;48.446;9.156;2022-12-05T05:18:32;10.57;;;7.60;;
2684;SDS011;1352;48.446;9.156;2022-12-05T05:21:02;10.30;;;7.30;;
2684;SDS011;1352;48.446;9.156;2022-12-05T05:23:41;10.17;;;8.00;;
2684;SDS011;1352;48.446;9.156;2022-12-05T05:26:14;10.63;;;7.53;;
2684;SDS011;1352;48.446;9.156;2022-12-05T05:28:45;11.37;;;8.27;;
2684;SDS011;1352;48.446;9.156;2022-12-05T05:31:17;10.73;;;7.00;;
2684;SDS011;1352;48.446;9.156;2022-12-05T05:33:48;13.47;;;7.87;;
2684;SDS011;1352;48.446;9.156;2022-12-05T05:36:18;12.60;;;7.10;;
2684;SDS011;1352;48.446;9.156;2022-12-05T05:38:50;13.87;;;9.40;;
2684;SDS011;1352;48.446;9.156;2022-12-05T05:41:20;11.97;;;7.30;;
2684;SDS011;1352;48.446;9.156;2022-12-05T05:43:49;12.73;;;7.77;;
2684;SDS011;1352;48.446;9.156;2022-12-05T05:46:19;14.17;;;8.30;;
2684;SDS011;1352;48.446;9.156;2022-12-05T05:48:52;10.40;;;7.80;;
2684;SDS011;1352;48.446;9.156;2022-12-05T05:51:23;18.10;;;9.50;;
2684;SDS011;1352;48.446;9.156;2022-12-05T05:53:53;14.10;;;8.93;;
2684;SDS011;1352;48.446;9.156;2022-12-05T05:56:26;14.33;;;9.00;;
2684;SDS011;1352;48.446;9.156;2022-12-05T05:58:55;14.23;;;8.70;;
2684;SDS011;1352;48.446;9.156;2022-12-05T06:01:27;13.03;;;8.77;;
2684;SDS011;1352;48.446;9.156;2022-12-05T06:03:58;14.20;;;8.80;;
2684;SDS011;1352;48.446;9.156;2022-12-05T06:06:30;11.20;;;7.90;;
2684;SDS011;1352;48.446;9.156;2022-12-05T06:09:04;11.30;;;8.07;;
2684;SDS011;1352;48.446;9.156;2022-12-05T06:11:32;15.57;;;9.43;;
2684;SDS011;1352;48.446;9.156;2022-12-05T06:14:00;12.27;;;10.10;;
2684;SDS011;1352;48.446;9.156;2022-12-05T06:16:28;15.30;;;9.67;;
2684;SDS011;1352;48.446;9.156;2022-12-05T06:18:56;16.17;;;9.20;;
2684;SDS011;1352;48.446;9.156;2022-12-05T06:21:27;14.53;;;8.77;;
2684;SDS011;1352;48.446;9.156;2022-12-05T06:23:59;11.80;;;8.00;;
2684;SDS011;1352;48.446;9.156;2022-12-05T06:26:26;17.40;;;8.83;;
2684;SDS011;1352;48.446;9.156;2022-12-05T06:28:56;11.90;;;8.33;;
2684;SDS011;1352;48.446;9.156;2022-12-05T06:31:27;18.17;;;9.07;;
2684;SDS011;1352;48.446;9.156;2022-12-05T06:33:59;16.17;;;9.87;;
2684;SDS011;1352;48.446;9.156;2022-12-05T06:36:45;13.30;;;10.00;;
2684;SDS011;1352;48.446;9.156;2022-12-05T06:39:14;12.97;;;8.93;;
2684;SDS011;1352;48.446;9.156;2022-12-05T06:41:43;15.50;;;9.40;;
2684;SDS011;1352;48.446;9.156;2022-12-05T06:44:12;13.57;;;9.17;;
2684;SDS011;1352;48.446;9.156;2022-12-05T06:46:51;13.60;;;9.07;;
2684;SDS011;1352;48.446;9.156;2022-12-05T06:49:39;12.33;;;7.93;;
2684;SDS011;1352;48.446;9.156;2022-12-05T06:52:13;12.03;;;8.63;;
2684;SDS011;1352;48.446;9.156;2022-12-05T06:54:46;12.97;;;7.70;;
2684;SDS011;1352;48.446;9.156;2022-12-05T06:57:16;14.27;;;9.07;;
2684;SDS011;1352;48.446;9.156;2022-12-05T06:59:51;13.80;;;8.63;;
2684;SDS011;1352;48.446;9.156;2022-12-05T07:02:49;11.33;;;7.10;;
2684;SDS011;1352;48.446;9.156;2022-12-05T07:05:27;9.73;;;6.70;;
2684;SDS011;1352;48.446;9.156;2022-12-05T07:07:55;10.83;;;7.13;;
2684;SDS011;1352;48.446;9.156;2022-12-05T07:10:24;11.53;;;8.00;;
2684;SDS011;1352;48.446;9.156;2022-12-05T07:12:51;12.20;;;8.03;;
2684;SDS011;1352;48.446;9.156;2022-12-05T07:15:18;12.00;;;7.90;;
2684;SDS011;1352;48.446;9.156;2022-12-05T07:17:48;13.93;;;8.40;;
2684;SDS011;1352;48.446;9.156;2022-12-05T07:20:19;17.03;;;8.57;;
2684;SDS011;1352;48.446;9.156;2022-12-05T07:22:46;15.93;;;8.97;;
2684;SDS011;1352;48.446;9.156;2022-12-05T07:25:14;12.70;;;8.53;;
2684;SDS011;1352;48.446;9.156;2022-12-05T07:27:43;13.10;;;8.00;;
2684;SDS011;1352;48.446;9.156;2022-12-05T07:30:19;13.20;;;9.50;;
2684;SDS011;1352;48.446;9.156;2022-12-05T07:32:50;16.17;;;9.77;;
2684;SDS011;1352;48.446;9.156;2022-12-05T07:35:23;19.07;;;12.03;;
2684;SDS011;1352;48.446;9.156;2022-12-05T07:37:51;17.60;;;11.20;;
2684;SDS011;1352;48.446;9.156;2022-12-05T07:40:24;17.47;;;12.43;;
2684;SDS011;1352;48.446;9.156;2022-12-05T07:42:53;15.70;;;11.57;;
2684;SDS011;1352;48.446;9.156;2022-12-05T07:45:32;15.30;;;9.93;;
2684;SDS011;1352;48.446;9.156;2022-12-05T07:48:06;18.70;;;12.20;;
2684;SDS011;1352;48.446;9.156;2022-12-05T07:50:36;13.87;;;10.30;;
2684;SDS011;1352;48.446;9.156;2022-12-05T07:53:07;16.83;;;11.37;;
2684;SDS011;1352;48.446;9.156;2022-12-05T07:55:36;16.17;;;10.70;;
2684;SDS011;1352;48.446;9.156;2022-12-05T07:58:05;12.37;;;9.17;;
2684;SDS011;1352;48.446;9.156;2022-12-05T08:00:32;12.70;;;9.20;;
2684;SDS011;1352;48.446;9.156;2022-12-05T08:03:00;9.93;;;7.57;;
2684;SDS011;1352;48.446;9.156;2022-12-05T08:05:28;9.20;;;6.60;;
2684;SDS011;1352;48.446;9.156;2022-12-05T08:07:55;6.63;;;5.13;;
2684;SDS011;1352;48.446;9.156;2022-12-05T08:10:23;7.10;;;5.67;;
2684;SDS011;1352;48.446;9.156;2022-12-05T08:12:50;7.00;;;5.20;;
2684;SDS011;1352;48.446;9.156;2022-12-05T08:15:19;5.83;;;4.77;;
2684;SDS011;1352;48.446;9.156;2022-12-05T08:17:46;5.93;;;4.57;;
2684;SDS011;1352;48.446;9.156;2022-12-05T08:20:13;5.03;;;3.90;;
2684;SDS011;1352;48.446;9.156;2022-12-05T08:22:41;5.73;;;4.50;;
2684;SDS011;1352;48.446;9.156;2022-12-05T08:25:12;5.53;;;4.70;;
2684;SDS011;1352;48.446;9.156;2022-12-05T08:27:39;6.10;;;5.37;;
2684;SDS011;1352;48.446;9.156;2022-12-05T08:30:07;8.13;;;5.10;;
2684;SDS011;1352;48.446;9.156;2022-12-05T08:32:36;5.30;;;4.70;;
2684;SDS011;1352;48.446;9.156;2022-12-05T08:35:03;4.63;;;4.00;;
2684;SDS011;1352;48.446;9.156;2022-12-05T08:37:31;7.60;;;4.67;;
2684;SDS011;1352;48.446;9.156;2022-12-05T08:39:58;6.50;;;4.50;;
2684;SDS011;1352;48.446;9.156;2022-12-05T08:42:26;5.13;;;3.80;;
2684;SDS011;1352;48.446;9.156;2022-12-05T08:44:56;4.67;;;4.23;;
2684;SDS011;1352;48.446;9.156;2022-12-05T08:47:24;6.40;;;3.60;;
2684;SDS011;1352;48.446;9.156;2022-12-05T08:49:53;4.30;;;3.63;;
2684;SDS011;1352;48.446;9.156;2022-12-05T08:52:22;3.20;;;2.90;;
2684;SDS011;1352;48.446;9.156;2022-12-05T08:54:53;2.47;;;2.30;;
2684;SDS011;1352;48.446;9.156;2022-12-05T08:57:23;5.53;;;4.90;;
2684;SDS011;1352;48.446;9.156;2022-12-05T08:59:58;5.47;;;4.73;;
2684;SDS011;1352;48.446;9.156;2022-12-05T09:02:31;2.53;;;2.33;;
2684;SDS011;1352;48.446;9.156;2022-12-05T09:05:09;3.40;;;3.17;;
2684;SDS011;1352;48.446;9.156;2022-12-05T09:07:38;6.63;;;4.73;;
2684;SDS011;1352;48.446;9.156;2022-12-05T09:10:17;7.10;;;6.07;;
2684;SDS011;1352;48.446;9.156;2022-12-05T09:12:44;7.97;;;5.93;;
2684;SDS011;1352;48.446;9.156;2022-12-05T09:15:16;8.17;;;7.10;;
2684;SDS011;1352;48.446;9.156;2022-12-05T09:17:45;11.63;;;8.17;;
2684;SDS011;1352;48.446;9.156;2022-12-05T09:20:14;8.03;;;6.90;;
2684;SDS011;1352;48.446;9.156;2022-12-05T09:22:46;10.03;;;8.20;;
2684;SDS011;1352;48.446;9.156;2022-12-05T09:25:37;14.97;;;10.27;;
2684;SDS011;1352;48.446;9.156;2022-12-05T09:28:10;14.60;;;11.43;;
2684;SDS011;1352;48.446;9.156;2022-12-05T09:30:39;18.50;;;11.87;;
2684;SDS011;1352;48.446;9.156;2022-12-05T09:33:08;17.80;;;12.40;;
2684;SDS011;1352;48.446;9.156;2022-12-05T09:35:39;16.70;;;11.57;;
2684;SDS011;1352;48.446;9.156;2022-12-05T09:38:07;14.03;;;10.87;;
2684;SDS011;1352;48.446;9.156;2022-12-05T09:40:34;13.90;;;10.90;;
2684;SDS011;1352;48.446;9.156;2022-12-05T09:43:07;12.67;;;10.13;;
2684;SDS011;1352;48.446;9.156;2022-12-05T09:45:50;10.43;;;9.30;;
2684;SDS011;1352;48.446;9.156;2022-12-05T09:48:24;17.03;;;10.77;;
2684;SDS011;1352;48.446;9.156;2022-12-05T09:51:02;13.87;;;11.07;;
2684;SDS011;1352;48.446;9.156;2022-12-05T09:53:34;12.70;;;10.37;;
2684;SDS011;1352;48.446;9.156;2022-12-05T09:56:11;12.60;;;9.00;;
2684;SDS011;1352;48.446;9.156;2022-12-05T09:58:47;9.10;;;7.87;;
2684;SDS011;1352;48.446;9.156;2022-12-05T10:04:11;14.37;;;8.00;;
2684;SDS011;1352;48.446;9.156;2022-12-05T10:06:57;9.47;;;6.80;;
2684;SDS011;1352;48.446;9.156;2022-12-05T10:09:51;10.73;;;6.83;;
2684;SDS011;1352;48.446;9.156;2022-12-05T10:15:30;7.40;;;5.70;;
2684;SDS011;1352;48.446;9.156;2022-12-05T10:18:01;10.93;;;6.90;;
2684;SDS011;1352;48.446;9.156;2022-12-05T10:20:36;10.00;;;7.70;;
2684;SDS011;1352;48.446;9.156;2022-12-05T10:23:11;7.93;;;7.03;;
2684;SDS011;1352;48.446;9.156;2022-12-05T10:25:46;9.70;;;7.30;;
2684;SDS011;1352;48.446;9.156;2022-12-05T10:28:21;7.43;;;6.67;;
2684;SDS011;1352;48.446;9.156;2022-12-05T10:30:54;8.70;;;6.17;;
2684;SDS011;1352;48.446;9.156;2022-12-05T10:33:26;9.80;;;7.07;;
2684;SDS011;1352;48.446;9.156;2022-12-05T10:36:01;7.80;;;6.80;;
2684;SDS011;1352;48.446;9.156;2022-12-05T10:38:36;9.77;;;7.37;;
2684;SDS011;1352;48.446;9.156;2022-12-05T10:41:05;7.93;;;6.27;;
2684;SDS011;1352;48.446;9.156;2022-12-05T10:43:35;8.03;;;6.13;;
2684;SDS011;1352;48.446;9.156;2022-12-05T10:46:06;6.50;;;5.67;;
2684;SDS011;1352;48.446;9.156;2022-12-05T10:48:34;9.53;;;7.80;;
2684;SDS011;1352;48.446;9.156;2022-12-05T10:51:04;9.57;;;7.40;;
2684;SDS011;1352;48.446;9.156;2022-12-05T10:53:38;8.30;;;6.30;;
2684;SDS011;1352;48.446;9.156;2022-12-05T10:59:10;7.57;;;6.80;;
2684;SDS011;1352;48.446;9.156;2022-12-05T11:01:43;7.10;;;6.03;;
2684;SDS011;1352;48.446;9.156;2022-12-05T11:04:19;7.73;;;6.30;;
2684;SDS011;1352;48.446;9.156;2022-12-05T11:06:53;7.37;;;6.17;;
2684;SDS011;1352;48.446;9.156;2022-12-05T11:09:25;7.70;;;6.00;;
2684;SDS011;1352;48.446;9.156;2022-12-05T11:14:55;7.53;;;6.57;;
2684;SDS011;1352;48.446;9.156;2022-12-05T11:17:26;8.57;;;6.40;;
2684;SDS011;1352;48.446;9.156;2022-12-05T11:19:56;7.10;;;6.40;;
2684;SDS011;1352;48.446;9.156;2022-12-05T11:22:29;7.63;;;6.93;;
2684;SDS011;1352;48.446;9.156;2022-12-05T11:24:58;7.63;;;6.87;;
2684;SDS011;1352;48.446;9.156;2022-12-05T11:27:27;7.17;;;6.43;;
2684;SDS011;1352;48.446;9.156;2022-12-05T11:29:57;6.57;;;5.20;;
2684;SDS011;1352;48.446;9.156;2022-12-05T11:32:27;6.87;;;6.17;;
2684;SDS011;1352;48.446;9.156;2022-12-05T11:34:57;7.57;;;6.90;;
2684;SDS011;1352;48.446;9.156;2022-12-05T11:37:33;7.70;;;6.90;;
2684;SDS011;1352;48.446;9.156;2022-12-05T11:40:13;7.67;;;6.47;;
2684;SDS011;1352;48.446;9.156;2022-12-05T11:45:48;6.77;;;5.70;;
2684;SDS011;1352;48.446;9.156;2022-12-05T11:51:33;6.97;;;4.90;;
2684;SDS011;1352;48.446;9.156;2022-12-05T11:54:19;6.23;;;5.60;;
2684;SDS011;1352;48.446;9.156;2022-12-05T11:57:25;5.27;;;4.77;;
2684;SDS011;1352;48.446;9.156;2022-12-05T12:02:59;7.00;;;6.13;;
2684;SDS011;1352;48.446;9.156;2022-12-05T12:05:41;5.90;;;5.30;;
2684;SDS011;1352;48.446;9.156;2022-12-05T12:08:17;6.67;;;5.90;;
2684;SDS011;1352;48.446;9.156;2022-12-05T12:10:52;4.67;;;4.23;;
2684;SDS011;1352;48.446;9.156;2022-12-05T12:13:44;6.80;;;5.50;;
2684;SDS011;1352;48.446;9.156;2022-12-05T12:16:29;6.37;;;5.10;;
2684;SDS011;1352;48.446;9.156;2022-12-05T12:19:15;5.70;;;4.30;;
2684;SDS011;1352;48.446;9.156;2022-12-05T12:22:22;4.53;;;4.10;;
2684;SDS011;1352;48.446;9.156;2022-12-05T12:25:10;5.53;;;4.83;;
2684;SDS011;1352;48.446;9.156;2022-12-05T12:28:06;5.47;;;3.63;;
2684;SDS011;1352;48.446;9.156;2022-12-05T12:30:53;3.90;;;3.13;;
2684;SDS011;1352;48.446;9.156;2022-12-05T12:33:31;3.33;;;3.03;;
2684;SDS011;1352;48.446;9.156;2022-12-05T12:36:09;2.77;;;2.57;;
2684;SDS011;1352;48.446;9.156;2022-12-05T12:38:54;3.10;;;2.80;;
2684;SDS011;1352;48.446;9.156;2022-12-05T12:41:37;4.47;;;3.23;;
2684;SDS011;1352;48.446;9.156;2022-12-05T12:44:24;3.90;;;3.43;;
2684;SDS011;1352;48.446;9.156;2022-12-05T12:47:22;4.33;;;3.40;;
2684;SDS011;1352;48.446;9.156;2022-12-05T12:50:10;5.93;;;3.17;;
2684;SDS011;1352;48.446;9.156;2022-12-05T12:53:03;4.13;;;2.73;;
2684;SDS011;1352;48.446;9.156;2022-12-05T12:56:01;3.37;;;2.43;;
2684;SDS011;1352;48.446;9.156;2022-12-05T12:58:54;4.60;;;3.00;;
2684;SDS011;1352;48.446;9.156;2022-12-05T13:01:41;3.30;;;2.43;;
2684;SDS011;1352;48.446;9.156;2022-12-05T13:04:16;2.40;;;2.20;;
2684;SDS011;1352;48.446;9.156;2022-12-05T13:06:50;4.63;;;2.67;;
2684;SDS011;1352;48.446;9.156;2022-12-05T13:09:52;2.97;;;2.57;;
2684;SDS011;1352;48.446;9.156;2022-12-05T13:12:34;3.23;;;2.83;;
2684;SDS011;1352;48.446;9.156;2022-12-05T13:15:12;4.23;;;2.70;;
2684;SDS011;1352;48.446;9.156;2022-12-05T13:17:49;2.60;;;2.40;;
2684;SDS011;1352;48.446;9.156;2022-12-05T13:20:34;2.80;;;2.60;;
2684;SDS011;1352;48.446;9.156;2022-12-05T13:23:02;3.30;;;2.90;;
2684;SDS011;1352;48.446;9.156;2022-12-05T13:25:32;2.40;;;2.30;;
2684;SDS011;1352;48.446;9.156;2022-12-05T13:28:05;2.60;;;2.37;;
2684;SDS011;1352;48.446;9.156;2022-12-05T13:30:47;2.90;;;2.70;;
2684;SDS011;1352;48.446;9.156;2022-12-05T13:33:26;2.40;;;2.20;;
2684;SDS011;1352;48.446;9.156;2022-12-05T13:36:12;3.23;;;3.03;;
2684;SDS011;1352;48.446;9.156;2022-12-05T13:39:05;3.60;;;2.43;;
2684;SDS011;1352;48.446;9.156;2022-12-05T13:45:06;3.30;;;3.00;;
2684;SDS011;1352;48.446;9.156;2022-12-05T13:47:49;3.17;;;2.37;;
2684;SDS011;1352;48.446;9.156;2022-12-05T13:50:31;5.00;;;2.83;;
2684;SDS011;1352;48.446;9.156;2022-12-05T13:53:18;7.00;;;4.03;;
2684;SDS011;1352;48.446;9.156;2022-12-05T13:55:55;4.87;;;3.10;;
2684;SDS011;1352;48.446;9.156;2022-12-05T14:07:40;3.90;;;3.23;;
2684;SDS011;1352;48.446;9.156;2022-12-05T14:13:43;3.27;;;3.00;;
2684;SDS011;1352;48.446;9.156;2022-12-05T14:23:34;6.30;;;3.83;;
2684;SDS011;1352;48.446;9.156;2022-12-05T14:26:27;3.33;;;3.03;;
2684;SDS011;1352;48.446;9.156;2022-12-05T14:29:16;3.53;;;2.90;;
2684;SDS011;1352;48.446;9.156;2022-12-05T14:32:01;4.67;;;4.00;;
2684;SDS011;1352;48.446;9.156;2022-12-05T14:34:56;14.13;;;9.43;;
2684;SDS011;1352;48.446;9.156;2022-12-05T14:38:06;9.20;;;6.40;;
2684;SDS011;1352;48.446;9.156;2022-12-05T14:41:14;6.60;;;5.90;;
2684;SDS011;1352;48.446;9.156;2022-12-05T14:44:10;6.07;;;5.47;;
2684;SDS011;1352;48.446;9.156;2022-12-05T14:47:26;10.80;;;5.90;;
2684;SDS011;1352;48.446;9.156;2022-12-05T14:50:30;5.80;;;5.00;;
2684;SDS011;1352;48.446;9.156;2022-12-05T14:53:26;6.43;;;5.10;;
2684;SDS011;1352;48.446;9.156;2022-12-05T14:56:28;6.83;;;4.17;;
2684;SDS011;1352;48.446;9.156;2022-12-05T14:59:29;5.30;;;4.73;;
2684;SDS011;1352;48.446;9.156;2022-12-05T15:05:54;5.10;;;4.60;;
2684;SDS011;1352;48.446;9.156;2022-12-05T15:08:28;6.30;;;4.70;;
2684;SDS011;1352;48.446;9.156;2022-12-05T15:11:13;5.37;;;4.37;;
2684;SDS011;1352;48.446;9.156;2022-12-05T15:14:16;5.10;;;4.60;;
2684;SDS011;1352;48.446;9.156;2022-12-05T15:17:01;3.87;;;3.47;;
2684;SDS011;1352;48.446;9.156;2022-12-05T15:19:46;7.73;;;5.50;;
2684;SDS011;1352;48.446;9.156;2022-12-05T15:22:47;4.40;;;3.97;;
2684;SDS011;1352;48.446;9.156;2022-12-05T15:25:38;5.77;;;4.33;;
2684;SDS011;1352;48.446;9.156;2022-12-05T15:28:21;5.60;;;3.93;;
2684;SDS011;1352;48.446;9.156;2022-12-05T15:30:53;4.50;;;4.10;;
2684;SDS011;1352;48.446;9.156;2022-12-05T15:33:24;5.70;;;4.63;;
2684;SDS011;1352;48.446;9.156;2022-12-05T15:36:02;5.33;;;3.77;;
2684;SDS011;1352;48.446;9.156;2022-12-05T15:38:48;4.80;;;4.30;;
2684;SDS011;1352;48.446;9.156;2022-12-05T15:51:00;4.20;;;3.80;;
2684;SDS011;1352;48.446;9.156;2022-12-05T15:53:35;4.40;;;4.00;;
2684;SDS011;1352;48.446;9.156;2022-12-05T15:56:32;7.43;;;4.00;;
2684;SDS011;1352;48.446;9.156;2022-12-05T15:59:13;4.40;;;4.00;;
2684;SDS011;1352;48.446;9.156;2022-12-05T16:01:54;4.00;;;3.70;;
2684;SDS011;1352;48.446;9.156;2022-12-05T16:04:47;5.37;;;4.10;;
2684;SDS011;1352;48.446;9.156;2022-12-05T16:07:23;4.47;;;4.07;;
2684;SDS011;1352;48.446;9.156;2022-12-05T16:09:55;4.53;;;4.13;;
2684;SDS011;1352;48.446;9.156;2022-12-05T16:12:32;4.53;;;4.13;;
2684;SDS011;1352;48.446;9.156;2022-12-05T16:15:13;5.47;;;5.07;;
2684;SDS011;1352;48.446;9.156;2022-12-05T16:17:51;4.23;;;3.93;;
2684;SDS011;1352;48.446;9.156;2022-12-05T16:20:24;5.30;;;4.80;;
2684;SDS011;1352;48.446;9.156;2022-12-05T16:23:04;5.00;;;4.40;;
2684;SDS011;1352;48.446;9.156;2022-12-05T16:26:13;4.60;;;4.20;;
2684;SDS011;1352;48.446;9.156;2022-12-05T16:28:57;5.40;;;4.90;;
2684;SDS011;1352;48.446;9.156;2022-12-05T16:31:33;4.07;;;3.67;;
2684;SDS011;1352;48.446;9.156;2022-12-05T16:34:04;5.63;;;5.10;;
2684;SDS011;1352;48.446;9.156;2022-12-05T16:36:46;6.40;;;4.73;;
2684;SDS011;1352;48.446;9.156;2022-12-05T16:39:19;5.10;;;4.60;;
2684;SDS011;1352;48.446;9.156;2022-12-05T16:41:51;6.03;;;4.60;;
2684;SDS011;1352;48.446;9.156;2022-12-05T16:53:51;4.90;;;4.50;;
2684;SDS011;1352;48.446;9.156;2022-12-05T16:56:21;5.23;;;4.43;;
2684;SDS011;1352;48.446;9.156;2022-12-05T16:58:55;4.17;;;3.60;;
2684;SDS011;1352;48.446;9.156;2022-12-05T17:01:24;5.00;;;3.70;;
2684;SDS011;1352;48.446;9.156;2022-12-05T17:03:54;3.70;;;3.40;;
2684;SDS011;1352;48.446;9.156;2022-12-05T17:06:23;4.43;;;3.87;;
2684;SDS011;1352;48.446;9.156;2022-12-05T17:08:53;6.07;;;4.10;;